Terminal Aerodrome Forecast
Issued by NWS

Home | Current Version | Previous Version | Text Only | Print | Product List | Glossary On
Versions: 1 2 3 4 5 6 7 8 9 10 11 12 13 14 15 16 17 18 19 20 21 22 23 24 25
000
FTUS45 KFGZ 011735
TAFGCN
TAF
KGCN 011735Z 0118/0218 06010G18KT P6SM SCT025 BKN035 BKN070
      TEMPO 0118/0121 5SM -SHRA BR BKN025
     FM020200 VRB03KT P6SM VCFG SCT060 BKN120
     FM020600 00000KT 3SM BR BKN008
     FM021500 06006KT P6SM SCT015 SCT050=

USA.gov is the U.S. government's official web portal to all federal, state and local government web resources and services.